createdAt,value
2023-01-09T00:01:13.402Z,2.45
2023-01-09T00:03:41.159Z,2.50
2023-01-09T00:06:09.051Z,2.70
2023-01-09T00:08:36.831Z,2.70
2023-01-09T00:11:04.683Z,2.60
2023-01-09T00:13:33.731Z,2.88
2023-01-09T00:16:01.510Z,2.67
2023-01-09T00:18:29.317Z,2.30
2023-01-09T00:21:00.048Z,2.10
2023-01-09T00:23:27.875Z,2.30
2023-01-09T00:26:03.660Z,2.38
2023-01-09T00:28:32.911Z,2.40
2023-01-09T00:31:02.364Z,2.28
2023-01-09T00:33:33.308Z,2.08
2023-01-09T00:36:01.227Z,2.03
2023-01-09T00:38:29.178Z,1.75
2023-01-09T00:40:57.264Z,1.73
2023-01-09T00:43:30.464Z,1.63
2023-01-09T00:46:00.913Z,1.50
2023-01-09T00:48:29.620Z,1.50
2023-01-09T00:50:59.847Z,1.45
2023-01-09T00:53:30.681Z,1.38
2023-01-09T00:56:01.956Z,1.50
2023-01-09T00:58:29.782Z,1.77
2023-01-09T01:00:59.014Z,1.45
2023-01-09T01:03:26.875Z,1.02
2023-01-09T01:06:12.171Z,1.52
2023-01-09T01:08:40.093Z,1.20
2023-01-09T01:11:10.200Z,1.20
2023-01-09T01:13:38.419Z,1.40
2023-01-09T01:16:09.448Z,1.13
2023-01-09T01:18:37.637Z,1.38
2023-01-09T01:21:08.246Z,1.40
2023-01-09T01:23:36.409Z,1.20
2023-01-09T01:26:07.530Z,0.90
2023-01-09T01:28:35.778Z,1.20
2023-01-09T01:31:04.301Z,1.00
2023-01-09T01:33:33.676Z,0.98
2023-01-09T01:36:02.925Z,1.20
2023-01-09T01:38:31.591Z,1.30
2023-01-09T01:40:59.767Z,0.93
2023-01-09T01:43:27.686Z,1.05
2023-01-09T01:45:55.589Z,1.17
2023-01-09T01:48:26.348Z,1.23
2023-01-09T01:51:00.390Z,0.95
2023-01-09T01:53:33.773Z,1.17
2023-01-09T01:56:07.773Z,1.08
2023-01-09T01:58:39.831Z,1.20
2023-01-09T02:01:07.928Z,1.08
2023-01-09T02:03:38.927Z,1.40
2023-01-09T02:06:09.454Z,1.13
2023-01-09T02:08:37.634Z,1.00
2023-01-09T02:11:06.582Z,1.20
2023-01-09T02:13:38.555Z,1.00
2023-01-09T02:16:18.995Z,0.85
2023-01-09T02:18:52.238Z,1.35
2023-01-09T02:21:33.459Z,1.23
2023-01-09T02:24:28.487Z,0.90
2023-01-09T02:27:20.921Z,1.00
2023-01-09T02:30:20.155Z,1.05
2023-01-09T02:33:01.742Z,0.77
2023-01-09T02:35:48.431Z,0.90
2023-01-09T02:38:24.505Z,1.00
2023-01-09T02:43:23.149Z,1.00
2023-01-09T02:45:52.456Z,0.85
2023-01-09T02:48:20.349Z,0.98
2023-01-09T02:50:55.826Z,1.30
2023-01-09T02:53:43.336Z,1.00
2023-01-09T02:56:29.493Z,1.17
2023-01-09T02:59:20.608Z,0.90
2023-01-09T03:02:02.461Z,1.00
2023-01-09T03:04:42.328Z,1.00
2023-01-09T03:07:18.325Z,1.13
2023-01-09T03:09:50.438Z,1.58
2023-01-09T03:12:21.277Z,0.90
2023-01-09T03:14:51.485Z,1.15
2023-01-09T03:17:26.922Z,1.73
2023-01-09T03:19:56.082Z,1.30
2023-01-09T03:22:23.883Z,1.70
2023-01-09T03:24:51.673Z,0.90
2023-01-09T03:27:19.804Z,1.10
2023-01-09T03:29:47.569Z,0.90
2023-01-09T03:32:15.286Z,1.08
2023-01-09T03:34:44.370Z,1.23
2023-01-09T03:37:12.441Z,1.20
2023-01-09T03:39:40.670Z,1.10
2023-01-09T03:42:08.456Z,1.02
2023-01-09T03:44:36.258Z,0.98
2023-01-09T03:47:04.002Z,0.80
2023-01-09T03:49:31.727Z,0.80
2023-01-09T03:52:00.841Z,0.82
2023-01-09T03:54:28.638Z,0.57
2023-01-09T03:56:56.350Z,0.88
2023-01-09T03:59:25.825Z,0.80
2023-01-09T04:01:53.710Z,0.80
2023-01-09T04:04:21.492Z,0.55
2023-01-09T04:06:49.341Z,0.65
2023-01-09T04:09:18.430Z,1.10
2023-01-09T04:11:46.167Z,0.68
2023-01-09T04:14:13.887Z,0.70
2023-01-09T04:16:41.730Z,0.93
2023-01-09T04:19:09.503Z,0.82
2023-01-09T04:21:37.243Z,0.57
2023-01-09T04:24:05.622Z,0.45
2023-01-09T04:26:34.655Z,0.40
2023-01-09T04:29:02.473Z,0.40
2023-01-09T04:31:30.208Z,0.80
2023-01-09T04:33:58.060Z,0.80
2023-01-09T04:36:25.880Z,0.50
2023-01-09T04:38:53.573Z,0.40
2023-01-09T04:41:35.300Z,0.20
2023-01-09T04:44:04.348Z,0.50
2023-01-09T04:46:32.102Z,1.40
2023-01-09T04:48:59.780Z,0.35
2023-01-09T04:51:27.497Z,0.30
2023-01-09T04:53:55.219Z,0.30
2023-01-09T04:56:23.013Z,0.30
2023-01-09T04:58:50.769Z,0.30
2023-01-09T05:01:19.944Z,0.20
2023-01-09T05:03:47.762Z,0.30
2023-01-09T05:06:15.480Z,0.40
2023-01-09T05:08:46.855Z,0.40
2023-01-09T05:11:15.693Z,0.30
2023-01-09T05:13:43.421Z,0.50
2023-01-09T05:16:11.266Z,1.23
2023-01-09T05:18:40.387Z,0.55
2023-01-09T05:21:08.112Z,0.50
2023-01-09T05:23:35.865Z,0.45
2023-01-09T05:26:04.864Z,0.50
2023-01-09T05:28:32.806Z,0.80
2023-01-09T05:31:00.574Z,1.02
2023-01-09T05:33:28.275Z,0.63
2023-01-09T05:35:57.365Z,0.55
2023-01-09T05:38:25.080Z,0.60
2023-01-09T05:40:52.757Z,0.50
2023-01-09T05:43:20.513Z,0.68
2023-01-09T05:45:48.385Z,0.77
2023-01-09T05:48:16.132Z,0.60
2023-01-09T05:50:44.263Z,0.60
2023-01-09T05:53:13.399Z,0.70
2023-01-09T05:55:41.147Z,0.40
2023-01-09T05:58:08.962Z,0.95
2023-01-09T06:00:37.127Z,0.70
2023-01-09T06:03:05.078Z,0.70
2023-01-09T06:05:33.713Z,0.75
2023-01-09T06:08:01.434Z,0.50
2023-01-09T06:10:30.499Z,1.10
2023-01-09T06:12:58.193Z,0.57
2023-01-09T06:15:25.928Z,0.73
2023-01-09T06:17:53.678Z,0.40
2023-01-09T06:20:21.559Z,0.30
2023-01-09T06:22:51.911Z,0.70
2023-01-09T06:25:19.929Z,0.50
2023-01-09T06:27:49.775Z,1.02
2023-01-09T06:30:18.122Z,0.80
2023-01-09T06:32:45.829Z,0.90
2023-01-09T06:35:13.569Z,0.93
2023-01-09T06:37:41.401Z,0.88
2023-01-09T06:40:10.458Z,0.57
2023-01-09T06:42:38.127Z,0.63
2023-01-09T06:45:08.426Z,1.08
2023-01-09T06:47:36.162Z,0.47
2023-01-09T06:50:03.884Z,0.65
2023-01-09T06:52:31.581Z,0.75
2023-01-09T06:54:59.276Z,0.50
2023-01-09T06:57:27.463Z,0.40
2023-01-09T06:59:55.233Z,0.80
2023-01-09T07:02:24.403Z,0.77
2023-01-09T07:04:52.223Z,0.77
2023-01-09T07:07:22.125Z,0.93
2023-01-09T07:09:49.910Z,0.80
2023-01-09T07:12:17.932Z,1.00
2023-01-09T07:14:45.684Z,0.90
2023-01-09T07:17:14.056Z,0.80
2023-01-09T07:19:43.313Z,1.10
2023-01-09T07:22:11.757Z,1.88
2023-01-09T07:24:39.534Z,1.25
2023-01-09T07:27:07.293Z,2.42
2023-01-09T07:29:35.038Z,1.15
2023-01-09T07:32:02.889Z,0.50
2023-01-09T07:34:30.682Z,0.80
2023-01-09T07:36:59.781Z,0.93
2023-01-09T07:39:28.225Z,0.80
2023-01-09T07:41:56.097Z,1.25
2023-01-09T07:44:23.858Z,0.77
2023-01-09T07:46:51.591Z,1.45
2023-01-09T07:49:19.302Z,0.80
2023-01-09T07:51:48.247Z,0.68
2023-01-09T07:54:17.738Z,0.95
2023-01-09T07:56:45.449Z,1.10
2023-01-09T07:59:13.225Z,1.10
2023-01-09T08:01:41.014Z,1.77
2023-01-09T08:04:08.742Z,1.40
2023-01-09T08:06:36.553Z,2.10
2023-01-09T08:09:04.779Z,2.22
2023-01-09T08:11:33.888Z,1.20
2023-01-09T08:14:01.583Z,1.00
2023-01-09T08:16:29.276Z,1.13
2023-01-09T08:18:57.041Z,1.10
2023-01-09T08:21:24.776Z,0.88
2023-01-09T08:23:52.890Z,1.02
2023-01-09T08:26:20.730Z,1.67
2023-01-09T08:28:49.758Z,1.38
2023-01-09T08:31:18.004Z,1.17
2023-01-09T08:33:45.811Z,0.95
2023-01-09T08:36:13.871Z,1.23
2023-01-09T08:38:41.646Z,1.35
2023-01-09T08:41:23.402Z,0.70
2023-01-09T08:44:10.038Z,0.88
2023-01-09T08:49:23.059Z,0.73
2023-01-09T08:51:50.788Z,1.00
2023-01-09T08:54:18.481Z,1.77
2023-01-09T08:56:46.273Z,1.02
2023-01-09T08:59:16.342Z,1.00
2023-01-09T09:01:45.907Z,0.75
2023-01-09T09:04:15.776Z,0.90
2023-01-09T09:06:45.612Z,0.88
2023-01-09T09:09:16.215Z,0.95
2023-01-09T09:11:46.003Z,1.10
2023-01-09T09:14:34.092Z,0.95
2023-01-09T09:17:04.233Z,0.90
2023-01-09T09:19:33.908Z,1.27
2023-01-09T09:22:03.681Z,1.00
2023-01-09T09:24:33.382Z,1.20
2023-01-09T09:27:03.106Z,1.10
2023-01-09T09:29:34.425Z,0.90
2023-01-09T09:32:04.199Z,1.15
2023-01-09T09:34:34.057Z,0.60
2023-01-09T09:37:03.795Z,1.25
2023-01-09T09:39:33.745Z,1.45
2023-01-09T09:42:45.078Z,0.93
2023-01-09T09:45:38.492Z,0.90
2023-01-09T09:48:19.923Z,0.70
2023-01-09T09:51:14.524Z,1.15
2023-01-09T09:53:54.232Z,0.93
2023-01-09T09:56:24.346Z,0.80
2023-01-09T09:58:55.189Z,1.42
2023-01-09T10:01:30.035Z,1.20
2023-01-09T10:04:01.598Z,1.13
2023-01-09T10:06:32.100Z,0.60
2023-01-09T10:09:06.463Z,0.82
2023-01-09T10:11:40.490Z,1.13
2023-01-09T10:14:19.400Z,1.60
2023-01-09T10:17:05.930Z,1.65
2023-01-09T10:19:48.101Z,0.70
2023-01-09T10:22:23.312Z,0.60
2023-01-09T10:25:04.421Z,1.23
2023-01-09T10:27:42.324Z,0.60
2023-01-09T10:30:26.950Z,0.50
2023-01-09T10:33:06.159Z,0.65
2023-01-09T10:35:59.071Z,0.70
2023-01-09T10:38:32.547Z,1.30
2023-01-09T10:41:06.074Z,1.08
2023-01-09T10:43:40.235Z,1.08
2023-01-09T10:46:12.757Z,1.35
2023-01-09T10:48:45.714Z,1.08
2023-01-09T10:51:20.161Z,1.20
2023-01-09T10:53:52.503Z,0.88
2023-01-09T10:56:24.944Z,0.98
2023-01-09T10:58:53.858Z,0.80
2023-01-09T11:01:26.286Z,0.77
2023-01-09T11:03:58.950Z,1.05
2023-01-09T11:06:30.932Z,0.75
2023-01-09T11:09:01.322Z,1.13
2023-01-09T11:11:34.924Z,0.90
2023-01-09T11:14:08.633Z,0.85
2023-01-09T11:16:36.606Z,0.95
2023-01-09T11:19:05.643Z,0.93
2023-01-09T11:21:36.067Z,0.60
2023-01-09T11:24:28.761Z,0.70
2023-01-09T11:27:23.460Z,0.65
2023-01-09T11:30:22.440Z,0.77
2023-01-09T11:32:50.424Z,0.90
2023-01-09T11:35:26.956Z,0.60
2023-01-09T11:38:07.648Z,1.00
2023-01-09T11:40:46.757Z,1.25
2023-01-09T11:43:19.136Z,1.50
2023-01-09T11:46:00.484Z,0.73
2023-01-09T11:48:32.375Z,0.73
2023-01-09T11:51:03.031Z,0.60
2023-01-09T11:53:41.466Z,1.00
2023-01-09T11:56:11.118Z,0.68
2023-01-09T11:58:38.897Z,0.77
2023-01-09T12:01:18.397Z,1.27
2023-01-09T12:04:03.258Z,0.90
2023-01-09T12:06:40.522Z,1.15
2023-01-09T12:09:11.673Z,0.80
2023-01-09T12:11:43.509Z,0.80
2023-01-09T12:14:32.177Z,1.20
2023-01-09T12:17:24.285Z,0.60
2023-01-09T12:20:17.674Z,0.88
2023-01-09T12:22:57.833Z,1.02
2023-01-09T12:25:34.970Z,1.15
2023-01-09T12:28:33.972Z,1.38
2023-01-09T12:31:14.763Z,0.82
2023-01-09T12:33:51.606Z,0.90
2023-01-09T12:36:26.599Z,0.90
2023-01-09T12:39:02.486Z,0.95
2023-01-09T12:41:46.825Z,0.77
2023-01-09T12:44:36.007Z,1.33
2023-01-09T12:47:24.459Z,1.30
2023-01-09T12:50:02.799Z,1.58
2023-01-09T12:52:35.696Z,1.20
2023-01-09T12:55:14.968Z,0.80
2023-01-09T12:57:45.699Z,0.80
2023-01-09T13:00:19.581Z,0.65
2023-01-09T13:03:00.422Z,1.10
2023-01-09T13:05:38.376Z,0.90
2023-01-09T13:08:14.432Z,1.25
2023-01-09T13:13:18.053Z,1.58
2023-01-09T13:15:50.725Z,1.13
2023-01-09T13:18:25.228Z,1.38
2023-01-09T13:20:56.568Z,1.77
2023-01-09T13:23:34.280Z,1.40
2023-01-09T13:26:05.924Z,3.60
2023-01-09T13:28:36.598Z,1.33
2023-01-09T13:31:28.365Z,0.90
2023-01-09T13:33:58.216Z,1.17
2023-01-09T13:36:28.619Z,1.55
2023-01-09T13:38:58.638Z,2.90
2023-01-09T13:41:46.074Z,1.95
2023-01-09T13:44:28.329Z,0.73
2023-01-09T13:46:59.050Z,1.10
2023-01-09T13:49:31.837Z,0.80
2023-01-09T13:52:05.029Z,1.20
2023-01-09T13:55:01.607Z,0.75
2023-01-09T13:57:34.670Z,1.00
2023-01-09T14:00:35.851Z,1.10
2023-01-09T14:03:23.706Z,1.00
2023-01-09T14:06:17.427Z,0.70
2023-01-09T14:08:48.117Z,0.95
2023-01-09T14:11:27.138Z,0.47
2023-01-09T14:14:05.151Z,0.38
2023-01-09T14:16:33.818Z,0.75
2023-01-09T14:19:09.575Z,0.93
2023-01-09T14:21:50.584Z,0.90
2023-01-09T14:24:26.005Z,0.93
2023-01-09T14:26:57.098Z,0.70
2023-01-09T14:29:47.236Z,0.75
2023-01-09T14:32:56.557Z,0.52
2023-01-09T14:35:29.426Z,1.00
2023-01-09T14:38:05.263Z,0.77
2023-01-09T14:40:34.806Z,1.05
2023-01-09T14:43:13.789Z,1.35
2023-01-09T14:45:49.184Z,2.40
2023-01-09T14:50:51.339Z,1.23
2023-01-09T14:53:22.220Z,2.65
2023-01-09T14:55:53.294Z,1.20
2023-01-09T14:58:25.527Z,1.30
2023-01-09T15:00:59.471Z,1.20
2023-01-09T15:03:32.892Z,1.40
2023-01-09T15:06:01.639Z,1.00
2023-01-09T15:08:30.252Z,1.15
2023-01-09T15:10:59.838Z,0.80
2023-01-09T15:13:35.042Z,1.35
2023-01-09T15:16:06.743Z,1.73
2023-01-09T15:18:41.614Z,1.42
2023-01-09T15:21:18.441Z,1.70
2023-01-09T15:23:46.275Z,2.00
2023-01-09T15:26:23.334Z,0.90
2023-01-09T15:28:53.523Z,1.00
2023-01-09T15:31:25.001Z,1.30
2023-01-09T15:33:54.207Z,1.17
2023-01-09T15:36:24.313Z,2.42
2023-01-09T15:38:53.471Z,1.10
2023-01-09T15:41:43.821Z,1.33
2023-01-09T15:44:15.256Z,0.80
2023-01-09T15:46:46.446Z,1.10
2023-01-09T15:49:15.295Z,1.15
2023-01-09T15:51:45.372Z,1.00
2023-01-09T15:54:16.037Z,1.55
2023-01-09T15:56:45.826Z,2.22
2023-01-09T15:59:27.914Z,1.50
2023-01-09T16:02:14.247Z,1.63
2023-01-09T16:04:42.151Z,1.38
2023-01-09T16:07:15.267Z,0.90
2023-01-09T16:09:47.380Z,1.25
2023-01-09T16:12:21.007Z,0.88
2023-01-09T16:14:53.010Z,0.95
2023-01-09T16:17:26.332Z,0.85
2023-01-09T16:19:55.763Z,1.13
2023-01-09T16:22:25.820Z,1.48
2023-01-09T16:24:54.919Z,1.10
2023-01-09T16:27:25.943Z,2.25
2023-01-09T16:29:57.758Z,1.35
2023-01-09T16:32:30.414Z,1.10
2023-01-09T16:35:00.684Z,1.58
2023-01-09T16:37:29.200Z,1.70
2023-01-09T16:40:25.391Z,2.38
2023-01-09T16:43:01.141Z,1.60
2023-01-09T16:45:32.112Z,2.90
2023-01-09T16:48:01.859Z,2.08
2023-01-09T16:50:29.927Z,1.90
2023-01-09T16:52:58.247Z,2.05
2023-01-09T16:55:26.199Z,1.80
2023-01-09T16:57:54.041Z,2.28
2023-01-09T17:00:22.453Z,1.85
2023-01-09T17:02:50.217Z,2.08
2023-01-09T17:05:19.415Z,2.15
2023-01-09T17:07:47.183Z,2.47
2023-01-09T17:10:21.497Z,3.30
2023-01-09T17:12:49.631Z,1.40
2023-01-09T17:15:17.764Z,1.27
2023-01-09T17:17:46.054Z,2.00
2023-01-09T17:20:20.114Z,1.10
2023-01-09T17:22:48.162Z,1.58
2023-01-09T17:25:34.105Z,4.40
2023-01-09T17:28:20.310Z,2.53
2023-01-09T17:30:47.989Z,1.63
2023-01-09T17:33:17.801Z,1.15
2023-01-09T17:35:47.072Z,0.95
2023-01-09T17:38:15.640Z,1.40
2023-01-09T17:40:44.290Z,2.55
2023-01-09T17:43:13.263Z,1.10
2023-01-09T17:45:42.629Z,1.65
2023-01-09T17:48:16.149Z,1.73
2023-01-09T17:50:44.329Z,0.90
2023-01-09T17:53:13.586Z,1.60
2023-01-09T17:55:42.392Z,3.28
2023-01-09T17:58:26.863Z,1.58
2023-01-09T18:00:54.811Z,1.67
2023-01-09T18:03:25.786Z,1.85
2023-01-09T18:05:54.070Z,1.60
2023-01-09T18:08:23.377Z,1.45
2023-01-09T18:10:51.248Z,1.02
2023-01-09T18:13:19.165Z,1.10
2023-01-09T18:15:47.593Z,1.85
2023-01-09T18:18:17.025Z,1.27
2023-01-09T18:20:46.100Z,1.70
2023-01-09T18:23:14.585Z,1.50
2023-01-09T18:25:44.410Z,1.75
2023-01-09T18:28:15.199Z,2.22
2023-01-09T18:30:45.344Z,1.95
2023-01-09T18:33:14.065Z,3.60
2023-01-09T18:35:42.199Z,2.47
2023-01-09T18:38:10.243Z,1.80
2023-01-09T18:40:38.692Z,2.08
2023-01-09T18:43:08.965Z,1.42
2023-01-09T18:45:38.488Z,2.60
2023-01-09T18:48:07.419Z,3.53
2023-01-09T18:50:35.266Z,2.55
2023-01-09T18:53:03.007Z,3.38
2023-01-09T18:55:30.860Z,2.92
2023-01-09T18:57:58.544Z,4.22
2023-01-09T19:00:27.621Z,4.00
2023-01-09T19:02:55.464Z,2.67
2023-01-09T19:05:25.279Z,3.35
2023-01-09T19:07:53.114Z,1.90
2023-01-09T19:10:21.129Z,2.50
2023-01-09T19:12:49.028Z,2.13
2023-01-09T19:15:16.962Z,2.53
2023-01-09T19:17:46.806Z,3.15
2023-01-09T19:20:14.776Z,3.33
2023-01-09T19:22:42.570Z,3.45
2023-01-09T19:25:12.346Z,2.05
2023-01-09T19:27:40.284Z,1.92
2023-01-09T19:30:09.845Z,2.95
2023-01-09T19:32:38.266Z,1.85
2023-01-09T19:35:08.019Z,2.90
2023-01-09T19:37:37.195Z,3.30
2023-01-09T19:40:05.878Z,2.22
2023-01-09T19:42:33.966Z,1.98
2023-01-09T19:45:01.791Z,2.30
2023-01-09T19:47:29.520Z,4.35
2023-01-09T19:49:57.357Z,5.13
2023-01-09T19:52:26.486Z,2.83
2023-01-09T19:54:54.670Z,1.88
2023-01-09T19:57:22.450Z,2.38
2023-01-09T19:59:50.311Z,2.85
2023-01-09T20:02:18.305Z,2.92
2023-01-09T20:04:46.865Z,2.38
2023-01-09T20:07:17.193Z,2.45
2023-01-09T20:09:46.560Z,1.60
2023-01-09T20:12:14.396Z,1.98
2023-01-09T20:14:42.346Z,1.67
2023-01-09T20:17:10.360Z,1.80
2023-01-09T20:19:38.220Z,1.60
2023-01-09T20:22:06.141Z,1.35
2023-01-09T20:24:34.215Z,1.55
2023-01-09T20:27:03.395Z,1.85
2023-01-09T20:29:31.190Z,1.52
2023-01-09T20:31:59.717Z,1.90
2023-01-09T20:34:27.494Z,1.75
2023-01-09T20:36:55.573Z,1.65
2023-01-09T20:39:23.343Z,1.63
2023-01-09T20:41:51.386Z,1.60
2023-01-09T20:44:20.637Z,2.28
2023-01-09T20:46:48.578Z,1.88
2023-01-09T20:49:19.226Z,2.03
2023-01-09T20:51:48.624Z,2.05
2023-01-09T20:54:17.198Z,3.10
2023-01-09T20:56:45.052Z,2.97
2023-01-09T20:59:14.116Z,2.90
2023-01-09T21:01:43.679Z,3.00
2023-01-09T21:04:11.481Z,2.63
2023-01-09T21:06:39.712Z,2.88
2023-01-09T21:09:07.610Z,2.33
2023-01-09T21:11:35.728Z,2.72
2023-01-09T21:14:03.519Z,2.40
2023-01-09T21:16:31.474Z,3.30
2023-01-09T21:19:00.927Z,3.22
2023-01-09T21:21:28.965Z,3.95
2023-01-09T21:23:58.986Z,2.45
2023-01-09T21:26:30.332Z,2.88
2023-01-09T21:29:00.363Z,2.40
2023-01-09T21:31:33.495Z,2.70
2023-01-09T21:34:04.899Z,2.92
2023-01-09T21:36:35.058Z,2.40
2023-01-09T21:39:02.879Z,2.45
2023-01-09T21:41:48.547Z,2.10
2023-01-09T21:44:33.817Z,2.30
2023-01-09T21:47:03.259Z,2.10
2023-01-09T21:49:34.856Z,2.25
2023-01-09T21:52:03.379Z,3.00
2023-01-09T21:54:31.787Z,2.95
2023-01-09T21:56:59.885Z,3.58
2023-01-09T21:59:27.789Z,3.10
2023-01-09T22:01:55.847Z,2.45
2023-01-09T22:04:25.748Z,1.65
2023-01-09T22:06:54.908Z,1.48
2023-01-09T22:09:22.869Z,1.00
2023-01-09T22:11:50.706Z,1.10
2023-01-09T22:14:19.961Z,1.13
2023-01-09T22:16:47.825Z,1.00
2023-01-09T22:19:17.930Z,1.00
2023-01-09T22:21:45.920Z,0.80
2023-01-09T22:24:17.050Z,1.20
2023-01-09T22:26:45.257Z,1.10
2023-01-09T22:29:13.045Z,0.70
2023-01-09T22:31:42.793Z,1.00
2023-01-09T22:34:14.716Z,0.90
2023-01-09T22:36:42.780Z,1.60
2023-01-09T22:39:12.829Z,0.95
2023-01-09T22:41:42.589Z,1.40
2023-01-09T22:44:11.933Z,0.70
2023-01-09T22:46:39.855Z,0.73
2023-01-09T22:49:07.732Z,1.00
2023-01-09T22:51:35.666Z,0.93
2023-01-09T22:54:03.464Z,1.00
2023-01-09T22:56:32.170Z,0.90
2023-01-09T22:59:01.392Z,1.02
2023-01-09T23:01:29.527Z,0.95
2023-01-09T23:03:57.248Z,1.25
2023-01-09T23:06:26.115Z,1.30
2023-01-09T23:08:54.197Z,1.45
2023-01-09T23:11:38.126Z,1.15
2023-01-09T23:14:07.287Z,1.17
2023-01-09T23:16:35.087Z,1.02
2023-01-09T23:19:03.355Z,1.02
2023-01-09T23:21:31.114Z,0.90
2023-01-09T23:23:58.915Z,0.90
2023-01-09T23:26:26.831Z,1.75
2023-01-09T23:28:54.583Z,1.25
2023-01-09T23:31:23.637Z,1.02
2023-01-09T23:33:51.587Z,0.90
2023-01-09T23:36:20.638Z,1.13
2023-01-09T23:38:48.387Z,1.52
2023-01-09T23:41:16.324Z,1.20
2023-01-09T23:43:43.800Z,1.13
2023-01-09T23:46:13.263Z,1.35
2023-01-09T23:48:42.343Z,1.40
2023-01-09T23:51:10.036Z,1.20
2023-01-09T23:53:37.790Z,1.25
2023-01-09T23:56:06.021Z,1.00
2023-01-09T23:58:33.764Z,1.00
